Time;durP1;ratioP1;P1;durP2;ratioP2;P2;SDS_P1;SDS_P2;PMS_P1;PMS_P2;Temp;Humidity;BMP_temperature;BMP_pressure;BME280_temperature;BME280_humidity;BME280_pressure;Samples;Min_cycle;Max_cycle;Signal;HPM_P1;HPM_P2
2022/06/10 00:00:42;;;;;;;8.25;6.20;;;26.10;46.10;;;;;;5073646;28;20029;-77
2022/06/10 00:03:09;;;;;;;9.82;6.78;;;26.10;46.10;;;;;;5055343;28;20021;-77
2022/06/10 00:05:36;;;;;;;9.23;6.90;;;26.10;46.10;;;;;;5073730;28;20086;-77
2022/06/10 00:08:09;;;;;;;8.73;7.03;;;26.10;46.10;;;;;;5073297;28;20043;-77
2022/06/10 00:10:35;;;;;;;9.47;7.00;;;26.10;46.10;;;;;;5055960;28;20032;-77
2022/06/10 00:13:01;;;;;;;11.93;6.90;;;26.10;46.70;;;;;;5076086;28;20035;-77
2022/06/10 00:15:28;;;;;;;8.90;6.70;;;26.10;46.10;;;;;;5059237;28;20421;-76
2022/06/10 00:17:54;;;;;;;8.65;7.20;;;26.00;46.00;;;;;;5077252;28;20025;-77
2022/06/10 00:20:23;;;;;;;10.93;7.85;;;26.00;46.00;;;;;;5077321;28;20024;-77
2022/06/10 00:22:49;;;;;;;9.30;7.30;;;26.00;46.10;;;;;;5060120;28;20036;-77
2022/06/10 00:25:17;;;;;;;11.80;7.68;;;25.90;46.10;;;;;;5077347;28;20028;-77
2022/06/10 00:27:43;;;;;;;9.65;7.25;;;25.90;46.10;;;;;;5059435;28;20032;-77
2022/06/10 00:30:10;;;;;;;8.57;6.80;;;25.90;46.20;;;;;;5077066;28;20024;-76
2022/06/10 00:32:36;;;;;;;9.25;7.45;;;25.80;46.10;;;;;;5077024;28;20375;-77
2022/06/10 00:35:01;;;;;;;9.73;7.93;;;25.80;46.20;;;;;;5076994;28;20021;-77
2022/06/10 00:37:27;;;;;;;10.55;7.53;;;25.70;46.20;;;;;;5059100;28;20040;-77
2022/06/10 00:39:54;;;;;;;10.02;8.00;;;25.70;46.30;;;;;;5076766;28;20155;-77
2022/06/10 00:42:20;;;;;;;10.23;7.70;;;25.60;46.30;;;;;;5058915;28;20032;-77
2022/06/10 00:44:52;;;;;;;10.88;8.30;;;25.60;46.40;;;;;;5076817;28;20024;-77
2022/06/10 00:47:27;;;;;;;9.95;7.43;;;25.50;46.40;;;;;;5076443;28;20474;-77
2022/06/10 00:49:58;;;;;;;10.27;8.07;;;25.50;46.50;;;;;;5077399;28;20033;-77
2022/06/10 00:52:31;;;;;;;9.73;7.82;;;25.40;46.50;;;;;;5076981;28;20032;-77
2022/06/10 00:54:58;;;;;;;11.80;8.23;;;25.40;46.60;;;;;;5076930;28;20103;-77
2022/06/10 00:57:30;;;;;;;10.27;8.18;;;25.40;46.60;;;;;;5058589;28;20257;-77
2022/06/10 01:00:09;;;;;;;11.50;8.20;;;25.40;46.70;;;;;;5058892;28;20032;-77
2022/06/10 01:02:36;;;;;;;9.77;7.15;;;25.40;46.80;;;;;;5042965;28;20029;-76
2022/06/10 01:05:09;;;;;;;9.80;8.25;;;25.40;46.80;;;;;;5076078;28;20032;-76
2022/06/10 01:07:38;;;;;;;9.82;7.70;;;25.30;46.70;;;;;;5058784;28;20037;-76
2022/06/10 01:10:08;;;;;;;10.27;8.02;;;25.30;46.80;;;;;;5058741;28;20035;-76
2022/06/10 01:12:52;;;;;;;11.02;8.10;;;25.20;46.80;;;;;;5058663;28;20512;-75
2022/06/10 01:15:38;;;;;;;10.57;8.55;;;25.20;47.10;;;;;;5076432;28;20028;-77
2022/06/10 01:18:06;;;;;;;10.75;8.32;;;25.10;47.20;;;;;;5076268;28;20368;-77
2022/06/10 01:20:53;;;;;;;11.80;8.88;;;25.10;47.00;;;;;;5076431;28;20524;-77
2022/06/10 01:23:51;;;;;;;12.10;9.07;;;25.00;47.20;;;;;;5059081;28;20028;-77
2022/06/10 01:26:28;;;;;;;10.68;8.07;;;25.00;47.20;;;;;;5028704;28;20038;-76
2022/06/10 01:29:45;;;;;;;13.05;8.65;;;25.00;47.50;;;;;;5058279;28;20110;-77
2022/06/10 01:32:25;;;;;;;10.30;8.32;;;25.00;47.70;;;;;;5051450;28;20039;-77
2022/06/10 01:35:05;;;;;;;9.60;8.48;;;25.00;47.60;;;;;;5076140;28;20482;-76
2022/06/10 01:37:39;;;;;;;10.52;8.43;;;24.90;47.70;;;;;;5058125;28;20085;-77
2022/06/10 01:40:18;;;;;;;12.68;8.55;;;24.90;47.70;;;;;;5057923;28;20128;-77
2022/06/10 01:42:58;;;;;;;11.40;8.75;;;24.90;47.80;;;;;;5075903;28;20028;-76
2022/06/10 01:45:45;;;;;;;12.07;9.10;;;24.90;48.00;;;;;;5076070;28;20031;-77
2022/06/10 01:48:32;;;;;;;12.73;9.10;;;24.90;48.00;;;;;;5057788;28;20059;-76
2022/06/10 01:51:00;;;;;;;13.27;9.25;;;24.90;48.30;;;;;;5075749;28;20021;-77
2022/06/10 01:53:34;;;;;;;12.15;8.90;;;24.90;48.10;;;;;;5075817;28;20024;-76
2022/06/10 01:56:03;;;;;;;;;;;24.80;48.20;;;;;;5076007;28;20027;-77
2022/06/10 01:58:41;;;;;;;10.82;8.52;;;24.80;49.10;;;;;;5075521;28;19939;-77
2022/06/10 02:01:21;;;;;;;12.90;9.25;;;24.80;48.20;;;;;;5075735;28;20048;-77
2022/06/10 02:04:05;;;;;;;13.18;9.48;;;24.80;48.40;;;;;;5075823;28;20191;-76
2022/06/10 02:07:19;;;;;;;12.75;9.18;;;24.80;48.70;;;;;;5057593;28;20052;-77
2022/06/10 02:09:50;;;;;;;10.07;9.00;;;24.80;49.50;;;;;;5039217;28;20048;-77
2022/06/10 02:12:39;;;;;;;12.05;9.10;;;24.80;49.50;;;;;;5075428;28;20028;-77
2022/06/10 02:15:13;;;;;;;13.55;10.07;;;24.80;49.00;;;;;;5042826;28;20024;-77
2022/06/10 02:17:47;;;;;;;13.40;10.15;;;24.80;49.20;;;;;;5075375;28;20032;-77
2022/06/10 02:20:21;;;;;;;12.80;9.20;;;24.80;49.30;;;;;;5075252;28;20028;-77
2022/06/10 02:22:48;;;;;;;11.23;9.38;;;24.80;49.40;;;;;;5074979;28;20058;-77
2022/06/10 02:25:23;;;;;;;11.88;9.27;;;24.80;49.50;;;;;;5075212;28;20024;-77
2022/06/10 02:27:57;;;;;;;12.82;9.15;;;24.80;49.60;;;;;;5057938;28;20029;-77
2022/06/10 02:30:31;;;;;;;11.93;9.43;;;24.80;49.80;;;;;;5075447;28;20063;-77
2022/06/10 02:32:58;;;;;;;12.02;10.07;;;24.80;49.90;;;;;;5075138;28;20062;-77
2022/06/10 02:35:27;;;;;;;12.80;9.55;;;24.70;50.00;;;;;;5074040;28;20035;-77
2022/06/10 02:38:18;;;;;;;13.45;9.38;;;24.80;50.20;;;;;;5056733;28;20036;-77
2022/06/10 02:40:50;;;;;;;12.82;10.45;;;24.80;51.60;;;;;;5053554;28;20040;-77
2022/06/10 02:43:19;;;;;;;14.50;10.50;;;24.80;50.50;;;;;;5054728;28;20028;-77
2022/06/10 02:46:20;;;;;;;13.25;10.23;;;24.80;50.60;;;;;;5036517;28;20029;-77
2022/06/10 02:49:03;;;;;;;11.52;9.77;;;24.80;51.50;;;;;;5022975;28;20045;-76
2022/06/10 02:51:30;;;;;;;12.23;9.57;;;24.90;51.20;;;;;;5054550;28;20032;-77
2022/06/10 02:53:57;;;;;;;13.73;9.95;;;24.90;50.90;;;;;;5036396;28;20044;-77
2022/06/10 02:56:25;;;;;;;12.13;10.00;;;24.90;51.00;;;;;;5054755;28;20033;-77
2022/06/10 03:01:55;;;;;;;12.45;10.35;;;25.00;51.20;;;;;;5054328;28;20497;-77
2022/06/10 03:04:39;;;;;;;12.55;10.10;;;25.00;51.50;;;;;;5036635;28;20028;-77
2022/06/10 03:07:26;;;;;;;12.65;9.77;;;25.00;51.30;;;;;;5054273;28;20104;-76
2022/06/10 03:09:58;;;;;;;12.45;9.77;;;25.10;51.60;;;;;;5035865;28;20037;-77
2022/06/10 03:12:32;;;;;;;13.30;10.02;;;25.10;51.40;;;;;;5035412;28;20025;-78
2022/06/10 03:15:27;;;;;;;15.30;10.43;;;25.10;51.60;;;;;;5054181;28;20049;-77
2022/06/10 03:18:05;;;;;;;12.35;10.30;;;25.20;51.60;;;;;;5054443;28;20394;-77
2022/06/10 03:20:53;;;;;;;15.20;10.65;;;25.30;51.50;;;;;;5054009;28;20478;-77
2022/06/10 03:23:22;;;;;;;12.65;10.13;;;25.30;52.00;;;;;;5053847;28;20069;-77
2022/06/10 03:25:54;;;;;;;11.95;10.23;;;25.30;51.50;;;;;;5054475;28;20418;-78
2022/06/10 03:28:19;;;;;;;12.02;10.10;;;25.40;51.60;;;;;;5053747;28;20033;-76
2022/06/10 03:31:13;;;;;;;14.05;11.32;;;25.40;51.60;;;;;;5053686;28;20083;-76
2022/06/10 03:33:46;;;;;;;14.15;11.35;;;25.40;52.20;;;;;;5035390;28;20021;-76
2022/06/10 03:36:16;;;;;;;11.77;10.15;;;25.40;51.70;;;;;;5054214;28;20041;-78
2022/06/10 03:38:45;;;;;;;11.73;10.10;;;25.50;51.80;;;;;;5057869;28;20519;-77
2022/06/10 03:41:23;;;;;;;13.32;10.52;;;25.50;51.80;;;;;;5073811;28;20028;-77
2022/06/10 03:43:52;;;;;;;12.88;11.38;;;25.50;52.10;;;;;;5073272;28;20108;-76
2022/06/10 03:46:19;;;;;;;14.70;11.80;;;25.60;52.00;;;;;;5054329;28;20029;-76
2022/06/10 03:48:46;;;;;;;12.30;10.63;;;25.50;52.00;;;;;;5055614;28;20059;-77
2022/06/10 03:51:15;;;;;;;13.00;10.82;;;25.50;52.00;;;;;;5073651;28;20027;-77
2022/06/10 03:53:41;;;;;;;15.98;11.80;;;25.50;52.10;;;;;;5072977;28;20030;-77
2022/06/10 03:56:07;;;;;;;13.75;11.45;;;25.60;52.20;;;;;;5055353;28;20028;-76
2022/06/10 03:58:32;;;;;;;15.70;12.25;;;25.50;52.20;;;;;;5055424;28;20428;-77
2022/06/10 04:00:59;;;;;;;13.63;10.95;;;25.50;52.20;;;;;;5073334;28;20522;-77
2022/06/10 04:03:26;;;;;;;14.98;11.35;;;25.60;52.20;;;;;;5073788;28;20024;-76
2022/06/10 04:05:51;;;;;;;14.63;12.35;;;25.60;52.20;;;;;;5073435;28;20089;-75
2022/06/10 04:08:17;;;;;;;15.18;12.52;;;25.60;52.30;;;;;;5073492;28;20108;-76
2022/06/10 04:10:43;;;;;;;14.38;11.82;;;25.60;52.40;;;;;;5073282;28;20501;-76
2022/06/10 04:13:10;;;;;;;14.55;11.18;;;25.60;52.30;;;;;;5071995;28;20025;-77
2022/06/10 04:15:36;;;;;;;15.65;13.02;;;25.70;52.50;;;;;;5073053;28;20033;-76
2022/06/10 04:18:04;;;;;;;17.35;13.25;;;25.70;53.10;;;;;;5072652;28;20035;-76
2022/06/10 04:20:35;;;;;;;13.18;11.20;;;25.70;52.50;;;;;;5055233;28;20031;-77
2022/06/10 04:23:02;;;;;;;16.33;12.35;;;25.70;52.50;;;;;;5054335;28;20062;-75
2022/06/10 04:25:29;;;;;;;17.88;12.65;;;25.80;52.60;;;;;;5073050;28;20098;-77
2022/06/10 04:27:55;;;;;;;16.17;12.93;;;25.70;52.50;;;;;;5053867;28;20032;-76
2022/06/10 04:30:31;;;;;;;16.50;12.63;;;25.70;52.60;;;;;;5055287;28;20039;-76
2022/06/10 04:32:58;;;;;;;15.35;12.00;;;25.80;52.80;;;;;;5053066;28;20116;-78
2022/06/10 04:35:24;;;;;;;13.43;11.57;;;25.80;52.70;;;;;;5072529;28;20032;-76
2022/06/10 04:37:52;;;;;;;14.07;11.60;;;25.80;52.70;;;;;;5067911;28;20044;-76
2022/06/10 04:40:21;;;;;;;16.27;11.50;;;25.90;52.80;;;;;;5054645;28;20127;-77
2022/06/10 04:42:48;;;;;;;15.80;13.25;;;25.90;52.80;;;;;;5073358;28;20025;-77
2022/06/10 04:45:15;;;;;;;13.93;10.77;;;25.90;52.80;;;;;;5072192;28;20028;-77
2022/06/10 04:47:41;;;;;;;16.63;12.05;;;25.90;52.80;;;;;;5054314;28;20477;-76
2022/06/10 04:50:09;;;;;;;14.93;12.18;;;25.90;52.90;;;;;;5054628;28;20032;-76
2022/06/10 04:52:35;;;;;;;15.57;12.73;;;25.90;52.90;;;;;;5072934;28;20032;-78
2022/06/10 04:55:02;;;;;;;15.27;12.35;;;25.90;53.00;;;;;;5070892;28;20032;-77
2022/06/10 04:57:28;;;;;;;16.08;12.23;;;25.90;53.00;;;;;;5073012;28;20127;-77
2022/06/10 04:59:54;;;;;;;14.23;11.95;;;25.90;53.00;;;;;;5076003;28;20462;-77
2022/06/10 05:02:21;;;;;;;13.60;11.30;;;25.90;53.00;;;;;;5076583;28;20060;-77
2022/06/10 05:04:47;;;;;;;15.18;11.85;;;26.00;53.10;;;;;;5075485;28;20467;-76
2022/06/10 05:07:13;;;;;;;14.32;12.05;;;26.00;53.00;;;;;;5058479;28;20032;-77
2022/06/10 05:09:38;;;;;;;15.38;12.32;;;26.00;53.00;;;;;;5056324;28;20043;-77
2022/06/10 05:12:05;;;;;;;17.17;12.80;;;26.00;52.90;;;;;;5076415;28;20025;-77
2022/06/10 05:14:31;;;;;;;16.20;11.25;;;26.10;53.00;;;;;;5075584;28;20060;-77
2022/06/10 05:16:57;;;;;;;15.35;12.25;;;26.10;52.90;;;;;;5058348;28;20052;-76
2022/06/10 05:19:24;;;;;;;16.35;12.48;;;26.10;52.90;;;;;;5057550;28;20040;-76
2022/06/10 05:21:50;;;;;;;16.00;11.35;;;26.10;52.90;;;;;;5076007;28;20033;-76
2022/06/10 05:24:16;;;;;;;18.67;11.32;;;26.10;52.90;;;;;;5073513;28;20082;-76
2022/06/10 05:26:41;;;;;;;14.95;12.27;;;26.20;52.90;;;;;;5070916;28;20033;-77
2022/06/10 05:29:07;;;;;;;14.85;11.63;;;26.20;52.90;;;;;;5072342;28;20032;-78
2022/06/10 05:31:33;;;;;;;15.00;11.30;;;26.20;52.90;;;;;;5074520;28;20016;-77
2022/06/10 05:36:43;;;;;;;14.63;10.68;;;26.30;52.90;;;;;;5073832;28;20034;-76
2022/06/10 05:39:09;;;;;;;14.68;12.13;;;26.20;52.80;;;;;;5071735;28;20043;-75
2022/06/10 05:44:20;;;;;;;15.85;10.68;;;26.30;52.90;;;;;;5075179;28;20036;-73
2022/06/10 05:46:46;;;;;;;14.02;10.43;;;26.30;52.90;;;;;;5074670;28;20028;-80
2022/06/10 05:49:12;;;;;;;14.25;10.55;;;26.30;52.90;;;;;;5056452;28;20036;-76
2022/06/10 05:51:38;;;;;;;15.88;11.13;;;26.30;53.00;;;;;;5074505;28;20032;-75
2022/06/10 05:54:04;;;;;;;17.13;11.43;;;26.30;53.00;;;;;;5074417;28;20017;-77
2022/06/10 05:56:30;;;;;;;15.70;11.40;;;26.30;53.00;;;;;;5056806;28;20027;-74
2022/06/10 05:58:56;;;;;;;15.82;10.68;;;26.30;53.00;;;;;;5070581;28;20095;-77
2022/06/10 06:01:23;;;;;;;16.40;11.68;;;26.30;53.00;;;;;;5054417;28;20411;-79
2022/06/10 06:03:49;;;;;;;12.75;9.57;;;26.30;53.00;;;;;;5069097;28;20040;-77
2022/06/10 06:06:15;;;;;;;14.52;10.57;;;26.30;53.00;;;;;;5074941;28;20038;-77
2022/06/10 06:08:41;;;;;;;13.85;10.20;;;26.30;52.90;;;;;;5073646;28;20037;-76
2022/06/10 06:11:07;;;;;;;12.98;11.25;;;26.30;53.00;;;;;;5055036;28;20033;-76
2022/06/10 06:13:33;;;;;;;14.70;11.85;;;26.30;53.00;;;;;;5073543;28;20200;-77
2022/06/10 06:15:59;;;;;;;13.43;10.90;;;26.40;53.00;;;;;;5073401;28;20056;-75
2022/06/10 06:18:25;;;;;;;14.15;10.77;;;26.40;53.00;;;;;;5067714;28;20473;-78
2022/06/10 06:20:50;;;;;;;11.57;9.35;;;26.40;52.90;;;;;;5073056;28;20364;-78
2022/06/10 06:23:16;;;;;;;12.93;10.15;;;26.40;52.80;;;;;;5073773;28;20027;-77
2022/06/10 06:25:44;;;;;;;12.25;10.13;;;26.40;52.60;;;;;;5073091;28;20021;-75
2022/06/10 06:28:10;;;;;;;11.80;9.65;;;26.40;52.60;;;;;;5074167;28;20090;-75
2022/06/10 06:30:37;;;;;;;15.90;10.63;;;26.40;52.60;;;;;;5056782;28;20444;-77
2022/06/10 06:33:06;;;;;;;10.27;8.55;;;26.40;52.60;;;;;;5075206;28;20078;-77
2022/06/10 06:35:34;;;;;;;11.23;8.38;;;26.40;52.40;;;;;;5074998;28;20104;-76
2022/06/10 06:38:01;;;;;;;11.98;8.02;;;26.40;52.30;;;;;;5074801;28;20060;-78
2022/06/10 06:40:27;;;;;;;17.05;8.40;;;26.50;52.30;;;;;;5074423;28;20483;-78
2022/06/10 06:42:53;;;;;;;12.90;8.40;;;26.40;52.80;;;;;;5056469;28;20040;-78
2022/06/10 06:45:20;;;;;;;11.43;9.02;;;26.50;52.10;;;;;;5074129;28;20024;-78
2022/06/10 06:47:46;;;;;;;11.55;7.65;;;26.50;52.00;;;;;;5056560;28;20089;-78
2022/06/10 06:50:15;;;;;;;9.77;8.00;;;26.50;52.10;;;;;;5074266;28;20063;-78
2022/06/10 06:52:42;;;;;;;9.68;7.13;;;26.50;51.80;;;;;;5074820;28;20028;-78
2022/06/10 06:55:08;;;;;;;9.07;7.00;;;26.50;51.90;;;;;;5074374;28;20027;-76
2022/06/10 06:57:34;;;;;;;9.25;6.68;;;26.50;51.60;;;;;;5074528;28;20024;-76
2022/06/10 07:00:06;;;;;;;10.05;6.90;;;26.50;51.50;;;;;;5073690;28;20025;-77
2022/06/10 07:02:34;;;;;;;9.32;7.15;;;26.50;51.40;;;;;;5073945;28;20032;-77
2022/06/10 07:05:00;;;;;;;12.02;7.28;;;26.50;51.30;;;;;;5073812;28;20054;-77
2022/06/10 07:07:26;;;;;;;10.60;6.60;;;26.50;51.20;;;;;;5074119;28;20473;-78
2022/06/10 07:09:52;;;;;;;8.23;6.25;;;26.60;51.10;;;;;;5056491;28;20037;-78
2022/06/10 07:12:17;;;;;;;9.02;6.45;;;26.60;51.10;;;;;;5074291;28;20031;-78
2022/06/10 07:14:43;;;;;;;9.80;6.32;;;26.60;51.00;;;;;;5074141;28;20044;-78
2022/06/10 07:17:08;;;;;;;8.35;6.45;;;26.60;50.90;;;;;;5056062;28;20469;-76
2022/06/10 07:19:34;;;;;;;8.40;6.05;;;26.70;50.90;;;;;;5074049;28;20020;-78
2022/06/10 07:22:00;;;;;;;9.10;6.10;;;26.70;50.70;;;;;;5055509;28;20064;-78
2022/06/10 07:24:25;;;;;;;7.50;5.57;;;26.70;50.60;;;;;;5073618;28;20021;-77
2022/06/10 07:26:51;;;;;;;8.05;5.97;;;26.70;50.40;;;;;;5074060;28;20098;-77
2022/06/10 07:29:18;;;;;;;9.15;5.55;;;26.70;50.30;;;;;;5055699;28;20043;-78
2022/06/10 07:31:44;;;;;;;6.65;4.80;;;26.70;50.10;;;;;;5073806;28;20028;-78
2022/06/10 07:34:10;;;;;;;6.53;5.18;;;26.70;50.00;;;;;;5074013;28;20028;-78
2022/06/10 07:36:37;;;;;;;7.28;4.72;;;26.80;50.10;;;;;;5073713;28;20029;-78
2022/06/10 07:39:03;;;;;;;6.95;5.10;;;26.80;49.80;;;;;;5073880;28;20093;-78
2022/06/10 07:44:13;;;;;;;6.53;4.68;;;26.80;49.60;;;;;;5073892;28;20093;-78
2022/06/10 07:46:38;;;;;;;7.82;4.72;;;26.80;49.50;;;;;;5055467;28;20028;-78
2022/06/10 07:49:05;;;;;;;7.40;4.38;;;26.80;49.40;;;;;;5073450;28;20111;-76
2022/06/10 07:51:31;;;;;;;5.90;4.13;;;26.80;49.20;;;;;;5073161;28;20386;-77
2022/06/10 07:53:57;;;;;;;5.72;4.53;;;26.80;49.10;;;;;;5073355;28;20025;-77
2022/06/10 07:56:22;;;;;;;5.88;4.15;;;26.80;49.00;;;;;;5073100;28;20409;-77
2022/06/10 07:58:49;;;;;;;5.32;3.45;;;26.80;48.90;;;;;;5055311;28;20032;-77
2022/06/10 08:01:16;;;;;;;6.70;3.85;;;26.80;48.70;;;;;;5073407;28;20472;-77
2022/06/10 08:03:42;;;;;;;4.85;3.88;;;26.70;48.50;;;;;;5073356;28;20028;-77
2022/06/10 08:06:08;;;;;;;7.28;3.90;;;26.80;48.40;;;;;;5073258;28;20108;-77
2022/06/10 08:08:34;;;;;;;5.88;3.45;;;26.80;48.20;;;;;;5073725;28;20036;-78
2022/06/10 08:11:00;;;;;;;5.13;3.47;;;26.80;48.00;;;;;;5074008;28;20052;-78
2022/06/10 08:13:26;;;;;;;4.85;3.58;;;26.80;47.80;;;;;;5073802;28;20035;-77
2022/06/10 08:15:52;;;;;;;4.22;3.20;;;26.80;47.60;;;;;;5073475;28;20029;-77
2022/06/10 08:18:20;;;;;;;4.38;3.00;;;26.80;47.30;;;;;;5074116;28;20021;-78
2022/06/10 08:23:32;;;;;;;5.88;2.78;;;26.80;47.10;;;;;;5073549;28;20127;-78
2022/06/10 08:26:00;;;;;;;5.53;2.97;;;26.80;46.80;;;;;;5073275;28;20103;-77
2022/06/10 08:28:27;;;;;;;3.75;2.85;;;26.80;46.60;;;;;;5072564;28;20534;-77
2022/06/10 08:30:53;;;;;;;2.85;2.42;;;26.80;46.50;;;;;;5072819;28;20031;-77
2022/06/10 08:33:19;;;;;;;3.78;2.45;;;26.80;46.30;;;;;;5056862;28;20374;-77
2022/06/10 08:35:46;;;;;;;2.58;2.20;;;26.80;46.00;;;;;;5058936;28;20119;-77
2022/06/10 08:38:14;;;;;;;3.58;2.00;;;26.80;45.80;;;;;;5077463;28;20029;-77
2022/06/10 08:41:00;;;;;;;2.13;1.80;;;26.80;45.50;;;;;;5057116;28;20415;-77
2022/06/10 08:43:50;;;;;;;4.85;1.70;;;26.80;44.60;;;;;;5057018;28;20052;-77
2022/06/10 08:46:38;;;;;;;2.45;1.70;;;26.70;44.70;;;;;;5056612;28;20032;-78
2022/06/10 08:49:12;;;;;;;3.60;1.83;;;26.80;44.70;;;;;;5057042;28;20056;-78
2022/06/10 08:52:10;;;;;;;5.13;1.85;;;26.80;44.10;;;;;;5056903;28;20104;-78
2022/06/10 08:54:48;;;;;;;3.08;1.98;;;26.80;43.70;;;;;;5039340;28;20429;-78
2022/06/10 08:57:36;;;;;;;2.15;1.50;;;26.80;43.70;;;;;;5056887;28;20047;-78
2022/06/10 09:00:23;;;;;;;2.97;1.90;;;26.70;43.50;;;;;;5056520;28;20029;-77
2022/06/10 09:03:29;;;;;;;2.78;1.52;;;26.80;43.90;;;;;;5042306;28;20047;-78
2022/06/10 09:05:58;;;;;;;5.40;2.00;;;26.80;42.60;;;;;;5038200;28;20053;-78
2022/06/10 09:08:26;;;;;;;3.28;1.83;;;26.80;43.50;;;;;;5038062;28;20557;-77
2022/06/10 09:11:13;;;;;;;2.72;1.80;;;26.80;43.40;;;;;;5056198;28;20531;-77
2022/06/10 09:13:44;;;;;;;2.63;1.50;;;26.90;43.30;;;;;;5038136;28;20115;-78
2022/06/10 09:16:27;;;;;;;3.58;1.55;;;26.80;43.00;;;;;;5056593;28;20025;-77
2022/06/10 09:19:04;;;;;;;4.70;1.58;;;26.80;42.40;;;;;;5038683;28;20029;-77
2022/06/10 09:21:55;;;;;;;5.22;1.58;;;26.90;42.60;;;;;;5056018;28;20033;-80
2022/06/10 09:24:26;;;;;;;3.00;1.55;;;26.90;42.20;;;;;;5056412;28;20063;-78
2022/06/10 09:27:05;;;;;;;5.25;1.38;;;26.90;42.00;;;;;;5039645;28;20036;-77
2022/06/10 09:29:32;;;;;;;2.10;1.33;;;26.90;41.60;;;;;;5056177;28;20037;-77
2022/06/10 09:32:20;;;;;;;4.28;1.30;;;26.90;41.70;;;;;;5055754;28;20021;-78
2022/06/10 09:35:12;;;;;;;1.85;1.25;;;26.90;40.90;;;;;;5056595;28;20116;-77
2022/06/10 09:38:16;;;;;;;3.60;1.25;;;26.90;41.20;;;;;;5038139;28;20033;-77
2022/06/10 09:41:16;;;;;;;4.33;1.50;;;26.90;40.70;;;;;;4965046;28;20190;-77
2022/06/10 09:44:03;;;;;;;5.45;1.48;;;26.90;40.20;;;;;;5029811;28;20041;-78
2022/06/10 09:46:41;;;;;;;1.83;1.20;;;26.90;41.00;;;;;;5055990;28;20033;-78
2022/06/10 09:49:13;;;;;;;1.30;1.08;;;27.00;40.80;;;;;;5055636;28;20043;-78
2022/06/10 09:51:50;;;;;;;4.43;1.30;;;27.00;40.80;;;;;;5055782;28;20372;-78
2022/06/10 09:54:40;;;;;;;1.02;0.98;;;27.00;40.70;;;;;;5055569;28;20021;-78
2022/06/10 09:57:19;;;;;;;3.28;1.20;;;27.10;40.70;;;;;;5055208;28;20021;-77
2022/06/10 10:00:01;;;;;;;1.52;1.20;;;27.00;40.60;;;;;;5037857;28;20087;-78
2022/06/10 10:02:45;;;;;;;2.45;1.35;;;27.00;40.30;;;;;;5055249;28;20079;-78
2022/06/10 10:05:41;;;;;;;1.05;0.98;;;27.10;40.50;;;;;;5055924;28;20052;-78
2022/06/10 10:08:28;;;;;;;1.73;1.15;;;27.10;40.10;;;;;;5055675;28;20064;-78
2022/06/10 10:11:00;;;;;;;1.42;1.10;;;27.10;40.20;;;;;;5055238;28;20060;-78
2022/06/10 10:13:51;;;;;;;1.75;1.27;;;27.10;40.30;;;;;;5055373;28;20376;-78
2022/06/10 10:16:23;;;;;;;1.65;1.33;;;27.10;40.00;;;;;;5055611;28;20082;-78
2022/06/10 10:19:04;;;;;;;1.85;1.30;;;27.10;40.00;;;;;;5055338;28;20067;-79
2022/06/10 10:21:38;;;;;;;1.58;1.33;;;27.20;40.00;;;;;;5037268;28;20120;-77
2022/06/10 10:24:13;;;;;;;1.88;1.52;;;27.20;40.00;;;;;;5054974;28;20028;-76
2022/06/10 10:26:41;;;;;;;2.53;1.58;;;27.20;40.00;;;;;;5055337;28;20025;-78
2022/06/10 10:29:23;;;;;;;1.48;1.27;;;27.30;40.00;;;;;;5037320;28;20037;-77
2022/06/10 10:31:55;;;;;;;2.35;1.50;;;27.30;39.50;;;;;;5036915;28;20115;-77
2022/06/10 10:34:24;;;;;;;2.58;1.55;;;27.30;39.80;;;;;;5054878;28;20507;-77
2022/06/10 10:36:52;;;;;;;2.97;2.03;;;27.20;39.80;;;;;;5055574;28;20029;-77
2022/06/10 10:39:26;;;;;;;1.88;1.70;;;27.30;39.90;;;;;;5061046;28;20483;-77
2022/06/10 10:41:52;;;;;;;;;;;27.30;39.80;;;;;;5075331;28;20024;-77
2022/06/10 10:44:36;;;;;;;3.38;1.90;;;27.30;39.10;;;;;;5074677;28;19911;-77
2022/06/10 10:47:14;;;;;;;;;;;27.30;39.60;;;;;;5056639;28;20444;-77
2022/06/10 10:49:52;;;;;;;2.33;1.75;;;27.40;39.40;;;;;;5074808;28;19935;-78
2022/06/10 10:52:36;;;;;;;2.45;1.70;;;27.40;39.70;;;;;;5074695;28;20025;-77
2022/06/10 10:55:25;;;;;;;2.85;1.67;;;27.40;39.70;;;;;;5074968;28;20069;-77
2022/06/10 10:58:18;;;;;;;3.45;1.80;;;27.40;39.50;;;;;;5056558;28;20037;-77
2022/06/10 11:00:52;;;;;;;5.68;1.70;;;27.40;39.90;;;;;;5074326;28;20459;-78
2022/06/10 11:03:29;;;;;;;2.58;1.90;;;27.40;39.80;;;;;;5074671;28;20017;-77
2022/06/10 11:05:58;;;;;;;3.97;1.90;;;27.50;39.80;;;;;;5074071;28;20032;-77
2022/06/10 11:08:37;;;;;;;4.22;2.00;;;27.50;39.90;;;;;;5056286;28;20124;-77
2022/06/10 11:11:11;;;;;;;2.55;1.70;;;27.50;39.80;;;;;;5074469;28;20028;-77
2022/06/10 11:13:40;;;;;;;3.15;2.10;;;27.60;39.90;;;;;;5074140;28;20060;-76
2022/06/10 11:16:26;;;;;;;3.17;1.95;;;27.60;39.90;;;;;;5073854;28;20020;-76
2022/06/10 11:18:55;;;;;;;2.42;1.73;;;27.60;39.60;;;;;;5074287;28;20090;-77
2022/06/10 11:21:25;;;;;;;3.92;2.10;;;27.60;39.80;;;;;;5055879;28;20029;-75
2022/06/10 11:23:59;;;;;;;4.80;1.90;;;27.60;39.80;;;;;;5074277;28;20025;-77
2022/06/10 11:26:26;;;;;;;5.18;2.03;;;27.60;39.70;;;;;;5074390;28;20020;-76
2022/06/10 11:29:04;;;;;;;2.80;2.00;;;27.60;39.80;;;;;;5067169;28;20041;-76
2022/06/10 11:31:43;;;;;;;2.05;1.67;;;27.60;39.70;;;;;;5070578;28;20096;-75
2022/06/10 11:34:29;;;;;;;2.13;1.55;;;27.60;39.60;;;;;;5054127;28;20119;-78
2022/06/10 11:36:55;;;;;;;2.92;1.75;;;27.60;39.20;;;;;;5051884;28;20032;-75
2022/06/10 11:39:23;;;;;;;2.67;1.75;;;27.60;39.50;;;;;;5068191;28;20139;-76
2022/06/10 11:42:08;;;;;;;2.47;1.52;;;27.60;39.40;;;;;;5045910;28;20024;-76
2022/06/10 11:45:00;;;;;;;3.17;1.80;;;27.70;39.30;;;;;;5055073;28;20036;-76
2022/06/10 11:47:36;;;;;;;1.75;1.55;;;27.70;39.30;;;;;;5072718;28;20470;-76
2022/06/10 11:50:12;;;;;;;3.00;1.92;;;27.70;39.20;;;;;;5072771;28;20048;-76
2022/06/10 11:52:45;;;;;;;2.10;1.80;;;27.70;38.90;;;;;;5072875;28;20100;-77
2022/06/10 11:55:17;;;;;;;3.03;1.77;;;27.70;39.10;;;;;;5054613;28;20139;-76
2022/06/10 12:00:41;;;;;;;2.05;1.63;;;27.80;39.10;;;;;;5072579;28;20039;-76
2022/06/10 12:03:07;;;;;;;2.78;1.60;;;27.80;38.80;;;;;;5072585;28;20031;-76
2022/06/10 12:06:02;;;;;;;1.75;1.58;;;27.80;38.80;;;;;;5072383;28;20024;-76
2022/06/10 12:08:54;;;;;;;2.88;1.60;;;27.90;38.30;;;;;;5071787;28;20072;-77
2022/06/10 12:11:35;;;;;;;1.60;1.50;;;27.90;38.30;;;;;;5072503;28;20020;-76
2022/06/10 12:14:16;;;;;;;2.55;1.85;;;28.00;38.60;;;;;;5069969;28;20028;-77
2022/06/10 12:16:45;;;;;;;2.97;1.75;;;28.10;38.40;;;;;;5072252;28;20414;-77
2022/06/10 12:19:22;;;;;;;3.00;1.70;;;28.10;38.60;;;;;;5071453;28;20039;-75
2022/06/10 12:21:49;;;;;;;2.28;1.45;;;28.20;38.50;;;;;;5069139;28;20043;-75
2022/06/10 12:24:17;;;;;;;3.30;1.70;;;28.20;38.60;;;;;;5052517;28;20027;-75
2022/06/10 12:27:00;;;;;;;1.75;1.65;;;28.30;38.50;;;;;;5067207;28;20478;-79
2022/06/10 12:29:43;;;;;;;2.70;1.38;;;28.30;38.40;;;;;;5051201;28;20036;-75
2022/06/10 12:32:21;;;;;;;2.17;1.80;;;28.30;38.30;;;;;;5052993;28;20391;-74
2022/06/10 12:35:23;;;;;;;3.03;1.77;;;28.40;38.20;;;;;;5070621;28;20032;-76
2022/06/10 12:37:56;;;;;;;2.17;1.40;;;28.40;38.10;;;;;;5067971;28;20063;-76
2022/06/10 12:40:46;;;;;;;2.40;1.80;;;28.50;38.20;;;;;;5069127;28;20086;-77
2022/06/10 12:43:18;;;;;;;1.52;1.42;;;28.50;38.10;;;;;;5065333;28;20033;-76
2022/06/10 12:46:21;;;;;;;1.98;1.27;;;28.60;38.30;;;;;;5070187;28;20020;-77
2022/06/10 12:48:48;;;;;;;3.90;1.70;;;28.60;37.70;;;;;;5051695;28;20040;-78
2022/06/10 12:51:13;;;;;;;3.40;1.45;;;28.70;38.20;;;;;;5033766;28;20532;-76
2022/06/10 12:53:49;;;;;;;3.42;2.00;;;28.80;38.20;;;;;;5053307;28;20029;-76
2022/06/10 12:56:19;;;;;;;5.15;1.67;;;28.90;38.30;;;;;;5052737;28;20374;-77
2022/06/10 12:58:49;;;;;;;3.75;1.90;;;29.00;38.30;;;;;;5052856;28;20039;-77
2022/06/10 13:01:14;;;;;;;3.30;2.00;;;29.00;38.30;;;;;;5034957;28;20040;-77
2022/06/10 13:03:41;;;;;;;2.13;1.88;;;29.10;38.30;;;;;;5035040;28;20029;-77
2022/06/10 13:06:28;;;;;;;2.50;1.75;;;29.20;38.20;;;;;;5052937;28;20108;-77
2022/06/10 13:09:19;;;;;;;2.53;1.60;;;29.30;38.00;;;;;;5053009;28;20095;-76
2022/06/10 13:11:53;;;;;;;1.85;1.70;;;29.40;38.00;;;;;;5051957;28;20076;-76
2022/06/10 13:14:34;;;;;;;4.32;2.08;;;29.60;38.10;;;;;;5052739;28;20021;-78
2022/06/10 13:16:59;;;;;;;3.10;1.70;;;29.60;38.00;;;;;;5052634;28;20511;-76
2022/06/10 13:19:30;;;;;;;2.72;1.90;;;29.70;38.00;;;;;;5054077;28;20064;-76
2022/06/10 13:22:16;;;;;;;3.42;2.10;;;29.80;37.90;;;;;;5056722;28;20032;-76
2022/06/10 13:24:42;;;;;;;3.72;1.95;;;29.90;37.80;;;;;;5055779;28;20032;-77
2022/06/10 13:27:33;;;;;;;2.38;2.00;;;30.10;37.80;;;;;;5056007;28;20352;-76